Time;durP1;ratioP1;P1;durP2;ratioP2;P2;SDS_P1;SDS_P2;PMS_P1;PMS_P2;Temp;Humidity;BMP_temperature;BMP_pressure;BME280_temperature;BME280_humidity;BME280_pressure;Samples;Min_cycle;Max_cycle;Signal;HPM_P1;HPM_P2
2021/12/30 00:00:14;;;;;;;2.28;1.30;;;;;;;13.76;89.16;99305.72;344887;28;1288;-67
2021/12/30 00:00:26;;;;;;;2.42;1.10;;;;;;;13.64;89.27;99320.25;344705;28;982;-67
2021/12/30 00:00:42;;;;;;;2.80;1.23;;;;;;;13.75;89.12;99314.50;345084;28;1046;-67
2021/12/30 00:00:58;;;;;;;2.85;1.30;;;;;;;13.75;88.79;99304.03;344037;28;2131;-67
2021/12/30 00:01:13;;;;;;;2.00;1.15;;;;;;;13.77;88.86;99307.44;344594;28;1629;-67
2021/12/30 00:01:28;;;;;;;1.65;1.00;;;;;;;13.73;88.74;99300.66;344952;28;1067;-67
2021/12/30 00:01:41;;;;;;;2.08;1.08;;;;;;;13.75;88.89;99314.50;344831;28;2138;-67
2021/12/30 00:01:54;;;;;;;1.80;1.10;;;;;;;13.78;88.52;99322.16;344860;28;1050;-67
2021/12/30 00:02:06;;;;;;;1.48;1.10;;;;;;;13.74;88.81;99310.19;344794;28;1194;-67
2021/12/30 00:02:18;;;;;;;1.67;1.10;;;;;;;13.83;88.64;99327.16;345281;28;977;-67
2021/12/30 00:02:31;;;;;;;1.33;1.00;;;;;;;13.78;88.67;99314.31;345024;28;1008;-67
2021/12/30 00:02:44;;;;;;;1.50;1.10;;;;;;;13.77;88.71;99317.88;344877;28;1168;-67
2021/12/30 00:02:56;;;;;;;1.88;1.17;;;;;;;13.76;88.58;99314.44;344844;28;1615;-67
2021/12/30 00:03:09;;;;;;;3.13;1.17;;;;;;;13.75;88.86;99315.34;344251;28;1982;-67
2021/12/30 00:03:21;;;;;;;3.50;1.20;;;;;;;13.67;88.94;99316.66;343339;28;1136;-68
2021/12/30 00:03:33;;;;;;;2.10;1.10;;;;;;;13.67;89.07;99311.44;341907;28;1072;-67
2021/12/30 00:03:47;;;;;;;1.90;1.00;;;;;;;13.67;89.17;99327.09;342132;28;1128;-67
2021/12/30 00:03:59;;;;;;;2.83;1.10;;;;;;;13.66;89.12;99314.94;342291;28;1628;-67
2021/12/30 00:04:12;;;;;;;4.18;1.30;;;;;;;13.69;89.17;99320.03;342025;28;934;-67
2021/12/30 00:04:24;;;;;;;3.45;1.20;;;;;;;13.68;89.16;99316.59;341953;28;1051;-67
2021/12/30 00:04:36;;;;;;;2.20;1.35;;;;;;;13.72;89.00;99325.09;341378;28;2516;-67
2021/12/30 00:04:48;;;;;;;1.92;1.20;;;;;;;13.70;88.89;99324.31;342154;28;1810;-67
2021/12/30 00:05:02;;;;;;;1.35;0.98;;;;;;;13.68;89.07;99320.94;342161;28;1673;-67
2021/12/30 00:05:15;;;;;;;1.00;0.90;;;;;;;13.72;89.03;99312.88;342665;28;1658;-67
2021/12/30 00:05:27;;;;;;;1.05;0.90;;;;;;;13.72;88.82;99314.63;343476;28;1030;-67
2021/12/30 00:05:39;;;;;;;2.00;1.20;;;;;;;13.67;88.87;99321.88;344328;28;1433;-67
2021/12/30 00:05:54;;;;;;;2.47;1.33;;;;;;;13.65;89.20;99315.88;344059;28;1114;-67
2021/12/30 00:06:07;;;;;;;2.38;1.17;;;;;;;13.67;88.87;99321.88;342556;28;2101;-67
2021/12/30 00:06:22;;;;;;;1.98;1.02;;;;;;;13.70;89.24;99316.47;343958;28;2314;-67
2021/12/30 00:06:41;;;;;;;1.30;1.00;;;;;;;13.77;88.69;99325.72;343308;28;1278;-67
2021/12/30 00:06:53;;;;;;;1.75;1.20;;;;;;;13.76;88.68;99324.88;343357;28;1023;-67
2021/12/30 00:07:08;;;;;;;1.63;1.27;;;;;;;13.78;88.98;99322.16;343245;28;1607;-67
2021/12/30 00:07:20;;;;;;;3.05;1.30;;;;;;;13.72;88.76;99330.31;343771;28;1228;-67
2021/12/30 00:07:32;;;;;;;3.45;1.40;;;;;;;13.81;88.72;99323.78;343378;28;1062;-67
2021/12/30 00:07:45;;;;;;;1.92;1.20;;;;;;;13.84;88.42;99323.63;343169;28;1489;-67
2021/12/30 00:07:57;;;;;;;1.90;1.13;;;;;;;13.87;87.95;99324.31;342696;28;2386;-67
2021/12/30 00:08:10;;;;;;;1.88;1.20;;;;;;;13.92;87.79;99327.53;342075;28;1067;-67
2021/12/30 00:08:23;;;;;;;1.45;1.30;;;;;;;13.88;87.98;99330.38;341947;28;1839;-67
2021/12/30 00:08:35;;;;;;;2.55;1.30;;;;;;;13.83;88.19;99332.41;341693;28;1261;-67
2021/12/30 00:08:50;;;;;;;2.22;1.25;;;;;;;13.78;88.53;99325.63;342217;28;1289;-67
2021/12/30 00:09:02;;;;;;;1.92;1.20;;;;;;;13.85;88.31;99326.16;341653;28;2134;-67
2021/12/30 00:09:14;;;;;;;1.80;1.30;;;;;;;13.84;88.16;99329.69;341764;28;2332;-67
2021/12/30 00:09:28;;;;;;;2.40;1.30;;;;;;;13.82;88.45;99336.75;342192;28;1092;-67
2021/12/30 00:09:41;;;;;;;2.47;1.25;;;;;;;13.70;88.63;99335.63;342049;28;2716;-67
2021/12/30 00:09:53;;;;;;;2.78;1.23;;;;;;;13.75;88.62;99335.38;342034;28;1061;-67
2021/12/30 00:10:06;;;;;;;1.98;1.10;;;;;;;13.73;88.56;99332.00;341724;28;1245;-67
2021/12/30 00:10:18;;;;;;;1.50;1.00;;;;;;;13.78;88.70;99324.78;342555;28;779;-67
2021/12/30 00:10:30;;;;;;;1.63;1.10;;;;;;;13.88;88.26;99335.59;341426;28;1840;-67
2021/12/30 00:10:43;;;;;;;1.42;1.10;;;;;;;13.77;88.63;99333.53;342559;28;2343;-67
2021/12/30 00:10:55;;;;;;;1.75;1.17;;;;;;;13.85;88.29;99336.59;343084;28;1765;-67
2021/12/30 00:11:08;;;;;;;1.60;1.20;;;;;;;13.79;88.38;99334.31;342064;28;1015;-67
2021/12/30 00:11:21;;;;;;;1.80;1.15;;;;;;;13.78;88.58;99330.88;342998;28;1081;-67
2021/12/30 00:11:33;;;;;;;2.70;1.20;;;;;;;13.76;88.55;99330.09;343947;28;778;-67
2021/12/30 00:11:46;;;;;;;3.05;1.10;;;;;;;13.75;88.83;99335.38;343680;28;1231;-67
2021/12/30 00:12:18;;;;;;;1.55;1.15;;;;;;;13.71;88.58;99333.84;344243;28;1656;-67
2021/12/30 00:12:31;;;;;;;1.63;1.30;;;;;;;13.69;89.09;99340.94;344246;28;2343;-67
2021/12/30 00:12:43;;;;;;;1.75;1.40;;;;;;;13.72;88.78;99330.31;344765;28;1257;-67
2021/12/30 00:12:57;;;;;;;1.63;1.20;;;;;;;13.82;88.71;99333.31;343700;28;1035;-67
2021/12/30 00:13:09;;;;;;;1.70;1.17;;;;;;;13.84;88.38;99334.91;341463;28;1033;-67
2021/12/30 00:13:22;;;;;;;1.80;1.30;;;;;;;13.87;88.34;99337.38;342131;28;1192;-67
2021/12/30 00:13:35;;;;;;;1.60;1.27;;;;;;;13.84;88.24;99345.34;341958;28;1071;-67
2021/12/30 00:13:47;;;;;;;1.35;1.08;;;;;;;13.86;88.34;99345.28;342159;28;1019;-67
2021/12/30 00:13:59;;;;;;;1.45;1.02;;;;;;;13.93;87.91;99344.06;342470;28;1304;-67
2021/12/30 00:14:12;;;;;;;1.67;1.10;;;;;;;13.83;88.15;99338.47;342477;28;2397;-67
2021/12/30 00:14:24;;;;;;;1.90;1.10;;;;;;;13.87;87.99;99340.00;342053;28;2221;-67
2021/12/30 00:14:36;;;;;;;3.80;1.02;;;;;;;13.89;88.37;99343.38;343532;28;2144;-67
2021/12/30 00:14:48;;;;;;;3.33;1.00;;;;;;;13.87;88.20;99339.16;344923;28;2224;-67
2021/12/30 00:15:01;;;;;;;2.50;1.10;;;;;;;13.90;87.98;99339.81;344716;28;1565;-67
2021/12/30 00:15:13;;;;;;;2.28;1.08;;;;;;;13.90;87.84;99339.81;343572;28;2041;-67
2021/12/30 00:15:25;;;;;;;1.52;1.00;;;;;;;13.90;87.88;99337.19;343129;28;2555;-67
2021/12/30 00:15:38;;;;;;;1.60;1.00;;;;;;;13.90;88.21;99331.97;341949;28;1108;-67
2021/12/30 00:15:51;;;;;;;1.48;1.00;;;;;;;13.81;88.37;99335.06;342121;28;1146;-67
2021/12/30 00:16:03;;;;;;;1.17;1.00;;;;;;;13.82;88.41;99331.53;342645;28;1498;-67
2021/12/30 00:16:17;;;;;;;1.55;1.08;;;;;;;13.85;88.18;99336.59;343314;28;2036;-67
2021/12/30 00:16:29;;;;;;;2.30;1.10;;;;;;;13.84;88.13;99337.50;342725;28;2309;-67
2021/12/30 00:16:41;;;;;;;2.50;0.95;;;;;;;13.83;88.37;99333.22;343276;28;2158;-67
2021/12/30 00:16:54;;;;;;;3.28;0.98;;;;;;;13.88;88.02;99336.44;343314;28;2039;-67
2021/12/30 00:17:06;;;;;;;3.08;1.10;;;;;;;13.95;88.05;99332.59;343638;28;2437;-67
2021/12/30 00:17:18;;;;;;;2.35;1.00;;;;;;;13.93;87.76;99334.44;344725;28;1066;-67
2021/12/30 00:17:30;;;;;;;2.10;1.05;;;;;;;13.97;87.49;99333.38;343928;28;2154;-67
2021/12/30 00:17:42;;;;;;;2.60;1.20;;;;;;;13.97;87.69;99335.13;343727;28;2012;-67
2021/12/30 00:17:54;;;;;;;2.15;1.20;;;;;;;13.94;87.83;99341.38;345032;28;1066;-67
2021/12/30 00:18:09;;;;;;;1.30;1.00;;;;;;;13.92;87.93;99343.22;344837;28;1336;-67
2021/12/30 00:18:21;;;;;;;1.30;0.90;;;;;;;13.98;87.57;99342.91;343463;28;1019;-67
2021/12/30 00:18:33;;;;;;;2.83;1.08;;;;;;;13.94;87.61;99344.00;343400;28;1039;-67
2021/12/30 00:18:46;;;;;;;3.10;1.10;;;;;;;13.96;87.60;99342.16;343336;28;1151;-67
2021/12/30 00:18:58;;;;;;;2.50;1.00;;;;;;;13.92;87.87;99343.22;343327;28;1388;-67
2021/12/30 00:19:12;;;;;;;1.83;0.90;;;;;;;13.89;87.62;99343.38;343432;28;1047;-67
2021/12/30 00:19:24;;;;;;;2.95;1.05;;;;;;;13.96;87.76;99338.66;343297;28;2361;-67
2021/12/30 00:19:36;;;;;;;4.22;1.13;;;;;;;13.93;87.58;99344.91;343319;28;1061;-67
2021/12/30 00:19:48;;;;;;;3.88;1.20;;;;;;;13.90;87.84;99345.03;342014;28;2203;-67
2021/12/30 00:20:03;;;;;;;1.48;1.23;;;;;;;13.95;87.78;99343.06;342479;28;2076;-67
2021/12/30 00:20:16;;;;;;;2.63;1.23;;;;;;;14.07;87.62;99340.75;343451;28;1107;-67
2021/12/30 00:20:29;;;;;;;3.28;1.30;;;;;;;14.09;86.98;99344.97;343476;28;1087;-67
2021/12/30 00:20:41;;;;;;;3.58;1.38;;;;;;;14.08;86.85;99343.25;343640;28;2226;-67
2021/12/30 00:20:54;;;;;;;3.42;1.38;;;;;;;14.10;87.19;99345.78;343684;28;1783;-67
2021/12/30 00:21:06;;;;;;;2.50;1.33;;;;;;;14.09;86.93;99350.19;344627;28;1219;-67
2021/12/30 00:21:20;;;;;;;1.40;1.10;;;;;;;14.12;86.78;99343.94;345146;28;1006;-67
2021/12/30 00:21:32;;;;;;;1.10;1.00;;;;;;;14.12;86.89;99344.78;344213;28;1941;-67
2021/12/30 00:21:44;;;;;;;2.17;1.08;;;;;;;14.20;86.59;99347.00;345088;28;2344;-67
2021/12/30 00:21:56;;;;;;;2.53;1.10;;;;;;;14.10;86.55;99345.78;344941;28;1505;-67
2021/12/30 00:22:09;;;;;;;2.92;1.20;;;;;;;14.07;87.17;99351.19;345108;28;1209;-67
2021/12/30 00:22:22;;;;;;;1.98;1.30;;;;;;;14.05;87.09;99342.59;344857;28;1155;-67
2021/12/30 00:22:35;;;;;;;1.75;1.20;;;;;;;13.99;87.43;99344.59;345024;28;1090;-67
2021/12/30 00:22:47;;;;;;;1.80;1.20;;;;;;;14.02;87.59;99353.19;344429;28;2174;-67
2021/12/30 00:23:02;;;;;;;2.05;1.17;;;;;;;13.96;87.47;99351.72;344405;28;1833;-67
2021/12/30 00:23:14;;;;;;;2.30;1.23;;;;;;;13.96;87.59;99347.38;345064;28;866;-67
2021/12/30 00:23:26;;;;;;;1.50;1.30;;;;;;;13.97;87.30;99346.44;344455;28;2036;-67
2021/12/30 00:23:39;;;;;;;1.80;1.25;;;;;;;13.98;87.34;99342.91;344617;28;2240;-67
2021/12/30 00:23:52;;;;;;;2.33;1.20;;;;;;;13.99;87.43;99348.97;345010;28;1017;-67
2021/12/30 00:24:05;;;;;;;2.17;1.20;;;;;;;13.96;87.39;99339.53;344898;28;1241;-66
2021/12/30 00:24:18;;;;;;;1.33;1.20;;;;;;;13.93;87.52;99352.72;344905;28;1054;-67
2021/12/30 00:24:30;;;;;;;2.10;1.30;;;;;;;13.92;87.56;99350.19;344801;28;1125;-67
2021/12/30 00:24:42;;;;;;;2.40;1.40;;;;;;;13.97;87.86;99346.44;345311;28;748;-67
2021/12/30 00:24:54;;;;;;;2.50;1.48;;;;;;;14.01;87.25;99356.75;344840;28;1857;-67
2021/12/30 00:25:07;;;;;;;2.75;1.40;;;;;;;14.07;87.22;99351.19;345095;28;1030;-67
2021/12/30 00:25:19;;;;;;;2.83;1.45;;;;;;;13.97;87.33;99356.88;344966;28;1038;-66
2021/12/30 00:25:38;;;;;;;1.67;1.35;;;;;;;13.93;87.49;99351.91;344196;28;1928;-67
2021/12/30 00:25:50;;;;;;;1.30;1.15;;;;;;;13.91;87.78;99357.19;344740;28;1007;-67
2021/12/30 00:26:02;;;;;;;1.20;1.10;;;;;;;13.89;87.81;99369.50;343978;28;1582;-67
2021/12/30 00:26:15;;;;;;;2.10;1.20;;;;;;;13.88;88.00;99352.13;342111;28;1077;-67
2021/12/30 00:26:26;;;;;;;2.35;1.40;;;;;;;13.89;87.81;99361.66;342181;28;1205;-67
2021/12/30 00:26:38;;;;;;;3.72;1.40;;;;;;;13.91;87.71;99357.19;342165;28;1083;-67
2021/12/30 00:26:51;;;;;;;2.90;1.30;;;;;;;13.98;87.58;99357.72;342657;28;2356;-67
2021/12/30 00:27:03;;;;;;;1.45;1.17;;;;;;;14.03;87.43;99357.50;342265;28;1212;-67
2021/12/30 00:27:15;;;;;;;1.50;1.27;;;;;;;13.99;87.26;99356.81;341367;28;1943;-67
2021/12/30 00:27:27;;;;;;;1.92;1.20;;;;;;;13.88;87.55;99361.72;341843;28;1227;-67
2021/12/30 00:27:40;;;;;;;2.78;1.20;;;;;;;13.89;87.63;99356.44;343147;28;1271;-67
2021/12/30 00:27:51;;;;;;;2.05;1.10;;;;;;;13.87;87.75;99360.88;343442;28;1047;-67
2021/12/30 00:28:05;;;;;;;2.08;1.10;;;;;;;13.87;87.88;99354.81;343395;28;1675;-67
2021/12/30 00:28:24;;;;;;;2.72;1.20;;;;;;;13.84;88.13;99361.03;343372;28;2139;-67
2021/12/30 00:28:36;;;;;;;2.33;1.27;;;;;;;13.85;87.86;99362.75;344671;28;1188;-67
2021/12/30 00:28:48;;;;;;;2.60;1.40;;;;;;;13.88;87.79;99359.94;344698;28;1145;-67
2021/12/30 00:29:00;;;;;;;2.15;1.40;;;;;;;13.88;87.74;99357.34;344541;28;1633;-67
2021/12/30 00:29:12;;;;;;;1.42;1.23;;;;;;;13.94;87.49;99357.06;344252;28;1894;-67
2021/12/30 00:29:24;;;;;;;1.77;1.40;;;;;;;13.99;87.31;99360.25;344662;28;2444;-67
2021/12/30 00:29:37;;;;;;;2.75;1.25;;;;;;;13.87;87.74;99363.50;345033;28;1247;-67
2021/12/30 00:29:49;;;;;;;2.85;1.27;;;;;;;13.74;87.71;99375.47;344940;28;1214;-67
2021/12/30 00:30:03;;;;;;;2.60;1.20;;;;;;;13.81;88.11;99355.97;344441;28;1828;-67
2021/12/30 00:30:15;;;;;;;1.58;1.20;;;;;;;13.77;88.17;99357.88;344980;28;1231;-67
2021/12/30 00:30:27;;;;;;;1.55;1.20;;;;;;;13.85;88.13;99373.19;343481;28;876;-66
2021/12/30 00:30:40;;;;;;;1.50;1.23;;;;;;;13.78;88.10;99377.03;343497;28;1311;-67
2021/12/30 00:30:54;;;;;;;1.65;1.05;;;;;;;13.66;88.40;99356.75;343208;28;1015;-67
2021/12/30 00:31:07;;;;;;;1.30;0.90;;;;;;;13.73;88.14;99363.34;343088;28;1241;-67
2021/12/30 00:31:19;;;;;;;1.30;0.95;;;;;;;13.67;88.39;99358.44;343710;28;973;-67
2021/12/30 00:31:31;;;;;;;3.00;1.10;;;;;;;13.72;88.09;99357.28;342275;28;1145;-67
2021/12/30 00:31:43;;;;;;;4.65;1.10;;;;;;;13.76;88.13;99364.06;341848;28;1284;-67
2021/12/30 00:31:55;;;;;;;4.35;1.00;;;;;;;13.79;87.90;99363.03;341984;28;1067;-67
2021/12/30 00:32:07;;;;;;;1.50;1.00;;;;;;;13.77;87.83;99360.50;340766;29;1192;-67
2021/12/30 00:32:20;;;;;;;1.20;0.90;;;;;;;13.79;87.86;99363.03;341553;28;2318;-67
2021/12/30 00:32:32;;;;;;;1.10;1.00;;;;;;;13.79;87.89;99368.28;343503;28;1162;-67
2021/12/30 00:32:44;;;;;;;1.20;1.10;;;;;;;13.78;88.00;99350.91;342231;28;1282;-67
2021/12/30 00:32:56;;;;;;;1.20;1.10;;;;;;;13.75;87.93;99362.34;342058;28;1406;-67
2021/12/30 00:33:09;;;;;;;1.08;0.90;;;;;;;13.76;87.94;99363.19;343561;28;1123;-67
2021/12/30 00:33:22;;;;;;;1.80;0.90;;;;;;;13.78;87.91;99361.34;343141;28;2058;-67
2021/12/30 00:33:36;;;;;;;2.05;1.00;;;;;;;13.69;87.91;99359.22;342191;28;959;-67
2021/12/30 00:33:49;;;;;;;2.00;1.00;;;;;;;13.72;88.21;99352.06;342066;28;1058;-67
2021/12/30 00:34:01;;;;;;;1.88;1.10;;;;;;;13.77;87.94;99359.66;342389;28;1847;-67
2021/12/30 00:34:13;;;;;;;2.60;1.10;;;;;;;13.79;87.94;99368.28;342789;28;1929;-67
2021/12/30 00:34:25;;;;;;;2.83;1.10;;;;;;;13.74;87.94;99365.03;342185;28;1107;-67
2021/12/30 00:34:37;;;;;;;2.00;1.00;;;;;;;13.68;88.16;99362.72;342476;28;1947;-67
2021/12/30 00:34:49;;;;;;;1.50;1.00;;;;;;;13.64;88.47;99369.03;342902;28;1268;-67
2021/12/30 00:35:03;;;;;;;1.20;0.98;;;;;;;13.72;87.87;99352.06;341968;28;1206;-66
2021/12/30 00:35:15;;;;;;;1.42;1.00;;;;;;;13.73;88.01;99368.59;343035;28;1098;-67
2021/12/30 00:35:27;;;;;;;1.30;0.93;;;;;;;13.65;88.28;99366.34;341551;28;1990;-67
2021/12/30 00:35:39;;;;;;;1.85;1.15;;;;;;;13.72;87.97;99364.25;341591;28;2252;-67
2021/12/30 00:35:52;;;;;;;1.98;1.20;;;;;;;13.74;87.98;99360.69;342234;28;1091;-67
2021/12/30 00:36:06;;;;;;;2.15;1.20;;;;;;;13.69;88.02;99367.03;341361;28;1686;-66
2021/12/30 00:36:19;;;;;;;1.25;1.05;;;;;;;13.64;88.25;99358.59;342006;28;1434;-67
2021/12/30 00:36:31;;;;;;;1.10;1.00;;;;;;;13.72;87.99;99365.13;342493;28;792;-67
2021/12/30 00:36:43;;;;;;;1.55;1.02;;;;;;;13.72;88.07;99361.66;342112;28;1077;-67
2021/12/30 00:36:55;;;;;;;2.13;1.05;;;;;;;13.80;87.73;99359.50;341657;28;1885;-67
2021/12/30 00:37:07;;;;;;;2.05;1.10;;;;;;;13.81;87.65;99362.97;342865;28;2163;-67
2021/12/30 00:37:19;;;;;;;1.75;1.05;;;;;;;13.79;87.56;99361.28;343217;28;1023;-67
2021/12/30 00:37:32;;;;;;;1.73;1.15;;;;;;;13.79;87.31;99355.22;343500;28;1847;-67
2021/12/30 00:37:43;;;;;;;1.60;1.10;;;;;;;13.80;87.59;99359.50;344724;28;1335;-67
2021/12/30 00:37:56;;;;;;;1.55;1.10;;;;;;;13.83;87.50;99359.34;344709;28;1107;-66
2021/12/30 00:38:08;;;;;;;1.92;1.02;;;;;;;13.79;87.39;99363.88;344773;28;1190;-66
2021/12/30 00:38:20;;;;;;;2.63;1.10;;;;;;;13.73;87.81;99366.81;344938;28;1299;-66
2021/12/30 00:38:34;;;;;;;2.92;1.10;;;;;;;13.66;88.15;99357.59;344948;28;1043;-67
2021/12/30 00:38:46;;;;;;;1.88;0.98;;;;;;;13.59;88.39;99362.28;345053;28;1023;-67
2021/12/30 00:38:58;;;;;;;2.47;1.10;;;;;;;13.58;88.13;99363.22;344087;28;1814;-67
2021/12/30 00:39:11;;;;;;;3.10;1.30;;;;;;;13.62;88.45;99360.44;344119;28;1596;-67
2021/12/30 00:39:23;;;;;;;2.13;1.20;;;;;;;13.63;88.13;99362.13;344563;28;2207;-67
2021/12/30 00:39:35;;;;;;;2.92;1.15;;;;;;;13.70;87.87;99360.88;344599;28;1821;-67
2021/12/30 00:39:48;;;;;;;2.65;1.13;;;;;;;13.68;87.97;99370.56;344910;28;1177;-66
2021/12/30 00:40:00;;;;;;;2.55;1.20;;;;;;;13.66;87.84;99364.56;344596;28;2286;-67
2021/12/30 00:40:12;;;;;;;2.10;1.25;;;;;;;13.68;87.87;99367.94;343432;28;1136;-67
2021/12/30 00:40:24;;;;;;;2.00;1.40;;;;;;;13.69;88.03;99367.03;343834;28;782;-67
2021/12/30 00:40:37;;;;;;;2.40;1.40;;;;;;;13.75;87.59;99366.75;343394;28;2197;-67
2021/12/30 00:40:50;;;;;;;2.53;1.30;;;;;;;13.78;87.61;99366.56;342951;28;1093;-67
2021/12/30 00:41:02;;;;;;;1.90;1.20;;;;;;;13.83;87.06;99369.81;343116;28;1306;-67
2021/12/30 00:41:15;;;;;;;1.77;1.10;;;;;;;13.78;87.21;99371.78;343826;28;1271;-67
2021/12/30 00:41:27;;;;;;;1.50;1.05;;;;;;;13.77;87.40;99376.19;343374;28;1202;-67
2021/12/30 00:41:39;;;;;;;1.92;1.10;;;;;;;13.70;87.39;99373.94;343881;28;739;-67
2021/12/30 00:41:51;;;;;;;2.13;1.10;;;;;;;13.70;87.63;99368.72;343333;28;1088;-67
2021/12/30 00:42:03;;;;;;;2.03;1.08;;;;;;;13.73;87.53;99368.59;342814;28;2340;-67
2021/12/30 00:42:15;;;;;;;1.40;1.10;;;;;;;13.66;87.35;99368.06;344281;28;1985;-67
2021/12/30 00:42:27;;;;;;;1.60;1.17;;;;;;;13.68;87.77;99371.44;343712;28;2094;-67
2021/12/30 00:42:39;;;;;;;1.95;1.20;;;;;;;13.69;87.71;99367.03;344204;28;1674;-67
2021/12/30 00:42:52;;;;;;;2.28;1.20;;;;;;;13.71;87.57;99370.44;345171;28;1079;-67
2021/12/30 00:43:05;;;;;;;2.15;1.20;;;;;;;13.67;87.41;99358.44;344642;28;1754;-67
2021/12/30 00:43:19;;;;;;;2.22;1.30;;;;;;;13.65;87.72;99370.72;344830;28;1034;-67
2021/12/30 00:43:31;;;;;;;1.88;1.20;;;;;;;13.69;87.45;99367.03;344781;28;1154;-67
2021/12/30 00:43:43;;;;;;;1.88;1.02;;;;;;;13.66;87.44;99373.28;343420;28;1083;-67
2021/12/30 00:43:55;;;;;;;2.92;0.93;;;;;;;13.71;87.08;99365.19;342066;28;1107;-67
2021/12/30 00:44:07;;;;;;;3.92;1.00;;;;;;;13.67;87.65;99368.88;343560;28;1047;-67
2021/12/30 00:44:20;;;;;;;2.80;0.98;;;;;;;13.67;87.57;99374.94;341925;28;2277;-67
2021/12/30 00:44:32;;;;;;;2.50;0.80;;;;;;;13.73;87.45;99366.81;342869;28;1318;-67
2021/12/30 00:44:44;;;;;;;2.55;0.95;;;;;;;13.69;87.20;99377.50;343500;28;1116;-67
2021/12/30 00:44:56;;;;;;;2.85;1.10;;;;;;;13.71;87.19;99375.66;343556;28;1109;-67
2021/12/30 00:45:08;;;;;;;2.72;1.23;;;;;;;13.68;87.37;99365.34;342006;28;1850;-67
2021/12/30 00:45:20;;;;;;;2.28;1.25;;;;;;;13.63;87.80;99375.19;343021;28;1948;-67
2021/12/30 00:45:35;;;;;;;2.70;1.20;;;;;;;13.67;87.27;99368.88;344665;28;1142;-67
2021/12/30 00:45:47;;;;;;;2.22;0.93;;;;;;;13.67;87.52;99368.88;345316;28;993;-67
2021/12/30 00:45:59;;;;;;;1.83;0.90;;;;;;;13.68;87.30;99375.78;345064;28;2496;-67
2021/12/30 00:46:12;;;;;;;1.63;1.02;;;;;;;13.65;87.51;99370.72;344900;28;1869;-67
2021/12/30 00:46:24;;;;;;;1.40;1.10;;;;;;;13.69;87.31;99373.09;345526;28;1720;-67
2021/12/30 00:46:36;;;;;;;1.25;1.00;;;;;;;13.67;87.03;99376.72;344146;28;1878;-67
2021/12/30 00:46:49;;;;;;;1.58;1.00;;;;;;;13.61;87.36;99377.03;344877;28;1082;-67
2021/12/30 00:47:02;;;;;;;2.33;1.00;;;;;;;13.65;87.45;99375.97;344736;28;1727;-67
2021/12/30 00:47:15;;;;;;;2.65;0.90;;;;;;;13.61;87.44;99385.72;343306;28;1063;-67
2021/12/30 00:47:27;;;;;;;2.35;0.90;;;;;;;13.59;87.29;99388.38;343512;28;1043;-67
2021/12/30 00:47:39;;;;;;;1.70;0.80;;;;;;;13.48;87.65;99384.59;343396;28;1057;-67
2021/12/30 00:47:51;;;;;;;1.90;0.80;;;;;;;13.54;87.63;99386.91;343049;28;2018;-67
2021/12/30 00:48:05;;;;;;;2.03;0.82;;;;;;;13.50;87.81;99381.03;340615;28;2230;-67
2021/12/30 00:48:17;;;;;;;1.67;1.17;;;;;;;13.52;87.72;99381.78;339257;28;6227;-67
2021/12/30 00:48:29;;;;;;;1.70;1.27;;;;;;;13.54;87.88;99379.94;341725;28;5343;-67
2021/12/30 00:48:41;;;;;;;1.98;1.13;;;;;;;13.56;87.55;99380.72;342045;28;1204;-67
2021/12/30 00:48:53;;;;;;;2.55;1.05;;;;;;;13.53;87.64;99383.47;342133;28;5347;-67
2021/12/30 00:49:05;;;;;;;3.30;1.10;;;;;;;13.57;87.76;99385.00;340549;28;1790;-67
2021/12/30 00:49:18;;;;;;;2.35;1.00;;;;;;;13.55;87.79;99389.47;342744;28;1211;-67
2021/12/30 00:49:31;;;;;;;1.52;0.90;;;;;;;13.54;87.54;99379.94;343452;28;1046;-67
2021/12/30 00:49:43;;;;;;;1.73;0.90;;;;;;;13.59;87.35;99385.78;343125;28;1958;-67
2021/12/30 00:49:56;;;;;;;1.67;0.90;;;;;;;13.52;87.51;99394.84;344366;28;955;-67
2021/12/30 00:50:09;;;;;;;1.23;0.77;;;;;;;13.45;87.97;99384.78;344425;28;1180;-67
2021/12/30 00:50:22;;;;;;;1.38;0.90;;;;;;;13.38;87.99;99387.69;344675;28;1033;-66
2021/12/30 00:50:36;;;;;;;1.92;1.00;;;;;;;13.43;88.27;99392.66;344196;28;1336;-67
2021/12/30 00:50:48;;;;;;;1.92;0.95;;;;;;;13.48;87.71;99384.59;343356;28;1039;-67
2021/12/30 00:51:01;;;;;;;2.63;1.10;;;;;;;13.42;88.12;99391.00;343056;28;1916;-66
2021/12/30 00:51:13;;;;;;;2.88;1.02;;;;;;;13.45;88.12;99398.66;344713;28;1332;-67
2021/12/30 00:51:25;;;;;;;2.05;0.98;;;;;;;13.46;87.93;99391.66;343716;28;1063;-67
2021/12/30 00:51:37;;;;;;;1.75;0.93;;;;;;;13.45;88.05;99385.59;343002;28;2128;-66
2021/12/30 00:51:49;;;;;;;1.70;0.93;;;;;;;13.44;88.25;99389.16;343912;28;1692;-67
2021/12/30 00:52:01;;;;;;;2.10;1.00;;;;;;;13.43;87.80;99390.06;342219;28;1857;-67
2021/12/30 00:52:14;;;;;;;1.52;0.80;;;;;;;13.43;88.08;99397.06;342533;28;2159;-67
2021/12/30 00:52:26;;;;;;;1.65;0.85;;;;;;;13.42;88.01;99393.59;342217;28;1276;-67
2021/12/30 00:52:38;;;;;;;2.90;0.88;;;;;;;13.34;88.23;99396.56;341238;28;2605;-66
2021/12/30 00:52:50;;;;;;;3.40;1.00;;;;;;;13.34;88.47;99395.72;342172;28;1300;-67
2021/12/30 00:53:04;;;;;;;2.42;1.00;;;;;;;13.39;88.23;99397.19;342526;28;1635;-67
2021/12/30 00:53:16;;;;;;;1.30;0.90;;;;;;;13.40;88.17;99390.22;343762;28;1292;-66
2021/12/30 00:53:29;;;;;;;1.35;0.80;;;;;;;13.37;88.44;99398.19;342080;28;1028;-66
2021/12/30 00:53:41;;;;;;;1.25;0.90;;;;;;;13.36;88.60;99396.47;342318;28;1281;-67
2021/12/30 00:53:53;;;;;;;1.38;0.80;;;;;;;13.33;88.51;99394.88;342420;28;1046;-67
2021/12/30 00:54:05;;;;;;;1.77;0.80;;;;;;;13.33;88.62;99388.81;341579;28;2034;-66
2021/12/30 00:54:18;;;;;;;2.60;0.80;;;;;;;13.29;88.72;99390.72;342599;28;2728;-66
2021/12/30 00:54:30;;;;;;;2.65;0.85;;;;;;;13.33;88.51;99396.66;342246;28;1187;-66
2021/12/30 00:54:42;;;;;;;1.67;0.82;;;;;;;13.31;88.76;99395.88;342146;28;1063;-67
2021/12/30 00:54:54;;;;;;;1.20;0.80;;;;;;;13.32;88.53;99393.19;342367;28;972;-67
2021/12/30 00:55:07;;;;;;;2.47;0.90;;;;;;;13.34;88.60;99393.97;342015;28;1100;-67
2021/12/30 00:55:19;;;;;;;2.40;0.90;;;;;;;13.35;88.67;99405.25;342583;28;841;-67
2021/12/30 00:55:31;;;;;;;2.05;0.90;;;;;;;13.28;88.63;99395.97;342434;28;1067;-67
2021/12/30 00:55:43;;;;;;;2.00;0.95;;;;;;;13.30;88.70;99394.16;342455;28;934;-67
2021/12/30 00:55:55;;;;;;;2.35;0.85;;;;;;;13.31;88.77;99408.94;342137;28;1119;-66
2021/12/30 00:56:07;;;;;;;2.50;0.73;;;;;;;13.25;88.79;99398.75;340494;28;2305;-67
2021/12/30 00:56:19;;;;;;;2.60;0.80;;;;;;;13.23;88.91;99396.19;342755;28;1386;-67
2021/12/30 00:56:31;;;;;;;2.10;0.90;;;;;;;13.25;88.82;99396.13;343543;28;1111;-67
2021/12/30 00:56:43;;;;;;;3.33;0.98;;;;;;;13.26;88.95;99401.28;343324;28;1084;-66
2021/12/30 00:56:55;;;;;;;2.60;0.88;;;;;;;13.35;88.78;99402.63;343910;28;780;-67
2021/12/30 00:57:09;;;;;;;2.60;0.80;;;;;;;13.40;88.41;99403.28;342422;28;1308;-66
2021/12/30 00:57:21;;;;;;;1.70;0.80;;;;;;;13.36;88.46;99397.34;343198;28;1625;-67
2021/12/30 00:57:33;;;;;;;2.17;0.90;;;;;;;13.38;88.09;99399.88;344946;28;1067;-67
2021/12/30 00:57:45;;;;;;;1.95;0.90;;;;;;;13.43;87.98;99399.66;345419;28;744;-67
2021/12/30 00:57:58;;;;;;;2.20;0.90;;;;;;;13.42;88.35;99393.59;345083;28;1673;-67
2021/12/30 00:58:11;;;;;;;1.95;0.90;;;;;;;13.45;88.03;99401.28;344227;28;2428;-67
2021/12/30 00:58:23;;;;;;;2.28;0.90;;;;;;;13.36;88.11;99402.56;345061;28;2405;-67
2021/12/30 00:58:35;;;;;;;3.60;0.90;;;;;;;13.35;88.15;99400.03;345208;28;1102;-67
2021/12/30 00:58:48;;;;;;;3.72;0.85;;;;;;;13.28;88.56;99411.63;345100;28;2311;-67
2021/12/30 00:59:00;;;;;;;2.15;0.85;;;;;;;13.29;88.61;99397.69;345139;28;1713;-67
2021/12/30 00:59:12;;;;;;;1.75;0.80;;;;;;;13.27;88.79;99402.13;345060;28;1295;-67
2021/12/30 00:59:24;;;;;;;1.73;0.82;;;;;;;13.26;88.90;99405.63;345025;28;1106;-67
2021/12/30 00:59:36;;;;;;;1.75;0.80;;;;;;;13.19;88.99;99400.72;343423;28;1255;-67
2021/12/30 00:59:48;;;;;;;1.55;0.80;;;;;;;13.14;89.16;99407.94;343543;28;1095;-67
2021/12/30 01:00:02;;;;;;;2.60;0.90;;;;;;;13.15;89.19;99403.56;343972;28;1686;-67
2021/12/30 01:00:19;;;;;;;2.40;0.85;;;;;;;13.14;89.28;99412.31;344422;28;2235;-67
2021/12/30 01:00:33;;;;;;;1.17;0.90;;;;;;;13.22;89.07;99409.31;342588;28;1989;-67
2021/12/30 01:00:46;;;;;;;2.92;0.93;;;;;;;13.18;89.17;99411.25;342439;28;997;-67
2021/12/30 01:00:59;;;;;;;2.63;0.90;;;;;;;13.16;89.34;99413.94;342796;28;2317;-67
2021/12/30 01:01:11;;;;;;;1.20;0.90;;;;;;;13.25;89.08;99414.41;342925;28;1753;-67
2021/12/30 01:01:25;;;;;;;0.85;0.80;;;;;;;13.28;89.09;99411.63;343652;28;1083;-67